Time;durP1;ratioP1;P1;durP2;ratioP2;P2;SDS_P1;SDS_P2;PMS_P1;PMS_P2;Temp;Humidity;BMP_temperature;BMP_pressure;BME280_temperature;BME280_humidity;BME280_pressure;Samples;Min_cycle;Max_cycle;Signal;HPM_P1;HPM_P2
2021/08/24 00:01:36;;;;;;;6.23;5.73;;;15.20;99.90;;;;;;5072397;28;20436;-62
2021/08/24 00:04:02;;;;;;;5.03;3.87;;;15.20;99.90;;;;;;5075691;28;20464;-64
2021/08/24 00:06:28;;;;;;;4.60;4.03;;;15.20;99.90;;;;;;5076162;28;20175;-62
2021/08/24 00:08:53;;;;;;;4.80;4.27;;;15.20;99.90;;;;;;5075503;28;20192;-64
2021/08/24 00:11:19;;;;;;;6.03;5.53;;;15.20;99.90;;;;;;5073404;28;20176;-62
2021/08/24 00:13:45;;;;;;;5.17;4.60;;;15.20;99.90;;;;;;5075746;28;20180;-62
2021/08/24 00:16:11;;;;;;;5.77;5.17;;;15.20;99.90;;;;;;5074490;28;20202;-62
2021/08/24 00:18:37;;;;;;;5.17;4.73;;;15.20;99.90;;;;;;5075570;28;20438;-62
2021/08/24 00:21:03;;;;;;;4.70;4.30;;;15.20;99.90;;;;;;5067959;28;20195;-62
2021/08/24 00:23:30;;;;;;;4.87;4.37;;;15.20;99.90;;;;;;5055667;28;20199;-63
2021/08/24 00:25:58;;;;;;;6.67;4.70;;;15.20;99.90;;;;;;5055800;28;20913;-64
2021/08/24 00:28:24;;;;;;;6.13;5.57;;;15.10;99.90;;;;;;5053852;28;20446;-62
2021/08/24 00:30:49;;;;;;;5.93;4.70;;;15.10;99.90;;;;;;5060465;28;20920;-62
2021/08/24 00:33:16;;;;;;;5.37;4.87;;;15.10;99.90;;;;;;5075621;28;20410;-64
2021/08/24 00:35:42;;;;;;;5.10;4.70;;;15.10;99.90;;;;;;5075880;28;20555;-64
2021/08/24 00:38:12;;;;;;;5.27;4.70;;;15.10;99.90;;;;;;5074856;28;20425;-62
2021/08/24 00:40:38;;;;;;;4.80;4.40;;;15.20;99.90;;;;;;5071734;28;20464;-63
2021/08/24 00:43:07;;;;;;;6.27;5.43;;;15.20;99.90;;;;;;5075297;28;20453;-62
2021/08/24 00:45:35;;;;;;;5.80;5.20;;;15.20;99.90;;;;;;5075198;28;20992;-63
2021/08/24 00:48:01;;;;;;;7.73;4.80;;;15.20;99.90;;;;;;5074711;28;20407;-62
2021/08/24 00:50:35;;;;;;;4.67;4.27;;;15.20;99.90;;;;;;5073290;28;20417;-64
2021/08/24 00:53:07;;;;;;;5.20;4.73;;;15.10;99.90;;;;;;5055273;28;20400;-62
2021/08/24 00:55:34;;;;;;;5.07;4.47;;;15.10;99.90;;;;;;5063115;28;20823;-63
2021/08/24 00:58:04;;;;;;;6.57;5.87;;;15.10;99.90;;;;;;5074684;28;20422;-63
2021/08/24 01:00:31;;;;;;;4.90;4.40;;;15.10;99.90;;;;;;5074347;28;20411;-63
2021/08/24 01:03:04;;;;;;;4.80;4.40;;;15.10;99.90;;;;;;5074635;28;20846;-63
2021/08/24 01:05:31;;;;;;;5.27;4.77;;;15.10;99.90;;;;;;5074017;28;20419;-61
2021/08/24 01:08:26;;;;;;;5.23;4.80;;;15.00;99.90;;;;;;5074283;28;20508;-62
2021/08/24 01:10:55;;;;;;;5.70;4.37;;;15.00;99.90;;;;;;5068991;28;20402;-62
2021/08/24 01:13:26;;;;;;;4.60;4.20;;;15.00;99.90;;;;;;5054696;28;20461;-62
2021/08/24 01:16:04;;;;;;;4.10;3.70;;;15.00;99.90;;;;;;5054735;28;20900;-62
2021/08/24 01:18:39;;;;;;;4.03;3.73;;;14.90;99.90;;;;;;5061001;28;20418;-62
2021/08/24 01:21:42;;;;;;;4.40;4.00;;;14.90;99.90;;;;;;5068043;28;20415;-61
2021/08/24 01:24:36;;;;;;;3.93;3.50;;;14.90;99.90;;;;;;5054422;28;20453;-62
2021/08/24 01:27:11;;;;;;;3.70;3.30;;;14.90;99.90;;;;;;5054097;28;20496;-62
2021/08/24 01:30:19;;;;;;;3.90;3.60;;;14.90;99.90;;;;;;5054520;28;20891;-63
2021/08/24 01:32:54;;;;;;;6.07;3.93;;;14.90;99.90;;;;;;5054494;28;20426;-62
2021/08/24 01:35:44;;;;;;;3.97;3.43;;;14.90;99.90;;;;;;5054315;28;20422;-62
2021/08/24 01:38:24;;;;;;;3.30;3.00;;;14.90;99.90;;;;;;5053765;28;20862;-61
2021/08/24 01:41:01;;;;;;;3.47;3.17;;;14.90;99.90;;;;;;5061052;28;20420;-63
2021/08/24 01:43:47;;;;;;;4.60;3.53;;;14.80;99.90;;;;;;5054142;28;20474;-61
2021/08/24 01:46:36;;;;;;;3.90;3.60;;;14.80;99.90;;;;;;5043645;28;20419;-64
2021/08/24 01:49:04;;;;;;;3.63;3.10;;;14.80;99.90;;;;;;5053988;28;20423;-62
2021/08/24 01:51:43;;;;;;;3.40;3.10;;;14.80;99.90;;;;;;5072011;28;20418;-62
2021/08/24 01:54:21;;;;;;;3.47;3.27;;;14.70;99.90;;;;;;5066357;28;20427;-64
2021/08/24 01:56:49;;;;;;;3.43;3.13;;;14.70;99.90;;;;;;5052464;28;20387;-63
2021/08/24 01:59:25;;;;;;;2.60;2.50;;;14.60;99.90;;;;;;5053632;28;20444;-62
2021/08/24 02:02:00;;;;;;;3.33;3.03;;;14.50;99.90;;;;;;5073628;28;20417;-62
2021/08/24 02:04:40;;;;;;;3.53;3.23;;;14.50;99.90;;;;;;5072642;28;20522;-62
2021/08/24 02:07:09;;;;;;;4.23;3.27;;;14.40;99.90;;;;;;5073297;28;20373;-63
2021/08/24 02:09:44;;;;;;;3.93;3.53;;;14.40;99.90;;;;;;5069287;28;20900;-62
2021/08/24 02:12:12;;;;;;;6.93;3.67;;;14.30;99.90;;;;;;5052302;28;20527;-63
2021/08/24 02:14:40;;;;;;;3.40;3.10;;;14.30;99.90;;;;;;5053372;28;20411;-63
2021/08/24 02:17:09;;;;;;;9.63;3.47;;;14.20;99.90;;;;;;5052603;28;20411;-63
2021/08/24 02:19:49;;;;;;;5.40;3.60;;;14.20;99.90;;;;;;5056408;28;20450;-62
2021/08/24 02:22:21;;;;;;;3.97;3.47;;;14.20;99.90;;;;;;5062979;28;20436;-62
2021/08/24 02:24:54;;;;;;;3.90;3.47;;;14.10;99.90;;;;;;5053551;28;20459;-62
2021/08/24 02:27:26;;;;;;;3.00;2.80;;;14.00;99.90;;;;;;5053115;28;20773;-62
2021/08/24 02:29:52;;;;;;;3.67;3.33;;;14.00;99.90;;;;;;5059489;28;20482;-62
2021/08/24 02:32:26;;;;;;;3.60;3.30;;;14.00;99.90;;;;;;5073231;28;20432;-62
2021/08/24 02:35:06;;;;;;;7.07;3.77;;;13.90;99.90;;;;;;5073075;28;20236;-62
2021/08/24 02:37:36;;;;;;;3.27;2.90;;;13.90;99.90;;;;;;5057843;28;20402;-62
2021/08/24 02:40:11;;;;;;;3.53;3.23;;;13.80;99.90;;;;;;5073228;28;20487;-62
2021/08/24 02:42:47;;;;;;;3.03;2.73;;;13.70;99.90;;;;;;5073228;28;20408;-62
2021/08/24 02:45:30;;;;;;;3.53;3.23;;;13.60;99.90;;;;;;5073356;28;20412;-62
2021/08/24 02:47:57;;;;;;;3.37;3.07;;;13.60;99.90;;;;;;5069271;28;20521;-61
2021/08/24 02:50:24;;;;;;;3.37;3.10;;;13.50;99.90;;;;;;5053271;28;20753;-62
2021/08/24 02:52:50;;;;;;;4.17;3.77;;;13.50;99.90;;;;;;5072112;28;20779;-63
2021/08/24 02:55:17;;;;;;;3.53;3.23;;;13.50;99.90;;;;;;5073154;28;20925;-62
2021/08/24 02:57:43;;;;;;;5.23;3.63;;;13.40;99.90;;;;;;5071167;28;20506;-62
2021/08/24 03:00:09;;;;;;;3.47;3.17;;;13.40;99.90;;;;;;5053061;28;20824;-61
2021/08/24 03:02:34;;;;;;;3.83;3.50;;;13.40;99.90;;;;;;5053158;28;20568;-61
2021/08/24 03:05:00;;;;;;;3.93;3.20;;;13.40;99.90;;;;;;5052981;28;20755;-61
2021/08/24 03:07:30;;;;;;;4.07;3.67;;;13.40;99.90;;;;;;5052517;28;20170;-62
2021/08/24 03:10:01;;;;;;;3.83;3.53;;;13.30;99.90;;;;;;5072362;28;20204;-61
2021/08/24 03:12:40;;;;;;;4.47;3.30;;;13.30;99.90;;;;;;5071924;28;20788;-62
2021/08/24 03:15:20;;;;;;;2.75;2.55;;;13.20;99.90;;;;;;5071239;28;20179;-61
2021/08/24 03:18:00;;;;;;;4.03;3.45;;;13.20;99.90;;;;;;5053622;28;20166;-61
2021/08/24 03:20:31;;;;;;;4.03;2.80;;;13.20;99.90;;;;;;5073037;28;20169;-61
2021/08/24 03:22:58;;;;;;;4.72;4.32;;;13.20;99.90;;;;;;5072875;28;20231;-61
2021/08/24 03:25:25;;;;;;;3.03;2.75;;;13.10;99.90;;;;;;5072866;28;20172;-63
2021/08/24 03:27:54;;;;;;;4.05;3.70;;;13.10;99.90;;;;;;5071170;28;20260;-62
2021/08/24 03:30:21;;;;;;;4.07;3.67;;;13.00;99.90;;;;;;5056260;28;20594;-62
2021/08/24 03:32:48;;;;;;;3.90;3.60;;;13.00;99.90;;;;;;5056643;28;20438;-61
2021/08/24 03:35:16;;;;;;;4.93;4.38;;;13.00;99.90;;;;;;5056376;28;20788;-62
2021/08/24 03:37:43;;;;;;;4.03;3.63;;;13.00;99.90;;;;;;5056286;28;20179;-62
2021/08/24 03:40:12;;;;;;;4.10;3.42;;;13.00;99.90;;;;;;5076139;28;20275;-61
2021/08/24 03:42:38;;;;;;;5.43;4.03;;;12.90;99.90;;;;;;5076245;28;20171;-61
2021/08/24 03:45:06;;;;;;;3.70;3.40;;;12.90;99.90;;;;;;5069510;28;20177;-62
2021/08/24 03:47:31;;;;;;;4.07;3.67;;;12.90;99.90;;;;;;5055923;28;20411;-62
2021/08/24 03:49:57;;;;;;;3.50;3.23;;;12.80;99.90;;;;;;5073617;28;20675;-62
2021/08/24 03:52:23;;;;;;;4.50;4.10;;;12.80;99.90;;;;;;5076169;28;20176;-62
2021/08/24 03:54:49;;;;;;;5.53;4.75;;;12.80;99.90;;;;;;5076377;28;20251;-62
2021/08/24 03:57:15;;;;;;;4.53;4.13;;;12.70;99.90;;;;;;5075839;28;20259;-61
2021/08/24 03:59:40;;;;;;;5.40;4.20;;;12.70;99.90;;;;;;5060697;28;20653;-62
2021/08/24 04:02:06;;;;;;;4.87;4.37;;;12.70;99.90;;;;;;5055924;28;20929;-63
2021/08/24 04:04:33;;;;;;;7.43;3.50;;;12.60;99.90;;;;;;5056005;28;20794;-61
2021/08/24 04:06:58;;;;;;;7.47;4.70;;;12.60;99.90;;;;;;5055620;28;20179;-61
2021/08/24 04:09:24;;;;;;;4.43;4.03;;;12.60;99.90;;;;;;5068109;28;20189;-61
2021/08/24 04:11:50;;;;;;;4.97;4.47;;;12.60;99.90;;;;;;5075889;28;20495;-61
2021/08/24 04:14:15;;;;;;;4.57;3.47;;;12.50;99.90;;;;;;5073040;28;20181;-62
2021/08/24 04:16:41;;;;;;;5.33;4.83;;;12.50;99.90;;;;;;5055410;28;20237;-62
2021/08/24 04:19:11;;;;;;;4.13;3.77;;;12.50;99.90;;;;;;5065319;28;20301;-61
2021/08/24 04:21:42;;;;;;;3.83;3.40;;;12.50;99.90;;;;;;5076195;28;20897;-62
2021/08/24 04:24:08;;;;;;;3.80;3.50;;;12.40;99.90;;;;;;5075787;28;20295;-61
2021/08/24 04:26:34;;;;;;;2.80;2.58;;;12.40;99.90;;;;;;5074063;28;20173;-66
2021/08/24 04:29:00;;;;;;;4.60;3.53;;;12.40;99.90;;;;;;5067437;28;20263;-62
2021/08/24 04:31:25;;;;;;;3.13;2.80;;;12.30;99.90;;;;;;5053996;28;20185;-63
2021/08/24 04:33:51;;;;;;;3.77;3.43;;;12.30;99.90;;;;;;5055479;28;20177;-61
2021/08/24 04:36:17;;;;;;;4.17;3.43;;;12.30;99.90;;;;;;5055314;28;20525;-62
2021/08/24 04:38:43;;;;;;;4.07;3.50;;;12.30;99.90;;;;;;5060739;28;20263;-62
2021/08/24 04:41:08;;;;;;;5.10;4.57;;;12.30;99.90;;;;;;5075186;28;20174;-62
2021/08/24 04:43:35;;;;;;;3.53;3.30;;;12.30;99.90;;;;;;5073944;28;20548;-62
2021/08/24 04:46:01;;;;;;;4.45;4.05;;;12.30;99.90;;;;;;5055312;28;20601;-61
2021/08/24 04:48:26;;;;;;;6.47;5.80;;;12.30;99.90;;;;;;5058108;28;20280;-62
2021/08/24 04:50:53;;;;;;;6.00;4.57;;;12.30;99.90;;;;;;5075277;28;20579;-61
2021/08/24 04:53:18;;;;;;;5.43;4.32;;;12.40;99.90;;;;;;5075071;28;20173;-62
2021/08/24 04:55:44;;;;;;;4.27;3.87;;;12.40;99.90;;;;;;5075129;28;20166;-62
2021/08/24 04:58:09;;;;;;;4.63;3.80;;;12.50;99.90;;;;;;5073858;28;20217;-62
2021/08/24 05:00:35;;;;;;;5.17;4.67;;;12.60;99.90;;;;;;5074697;28;20555;-63
2021/08/24 05:03:02;;;;;;;3.93;3.53;;;12.70;99.90;;;;;;5075031;28;20186;-62
2021/08/24 05:05:28;;;;;;;6.22;4.53;;;12.90;99.90;;;;;;5075050;28;20783;-63
2021/08/24 05:07:54;;;;;;;4.27;3.53;;;13.00;99.90;;;;;;5074432;28;20174;-61
2021/08/24 05:10:21;;;;;;;9.73;4.68;;;13.10;99.90;;;;;;5074285;28;20432;-63
2021/08/24 05:12:48;;;;;;;4.10;3.40;;;13.10;99.90;;;;;;5074616;28;20227;-62
2021/08/24 05:15:14;;;;;;;6.03;3.87;;;13.20;99.90;;;;;;5055448;28;20392;-61
2021/08/24 05:17:39;;;;;;;6.47;4.53;;;13.20;99.90;;;;;;5054319;28;20777;-63
2021/08/24 05:20:09;;;;;;;10.93;3.80;;;13.30;99.90;;;;;;5054746;28;20467;-63
2021/08/24 05:22:35;;;;;;;4.37;4.07;;;13.40;99.90;;;;;;5054723;28;20198;-63
2021/08/24 05:25:01;;;;;;;3.87;3.50;;;13.50;99.90;;;;;;5053202;28;20996;-63
2021/08/24 05:27:27;;;;;;;4.80;4.33;;;13.60;99.90;;;;;;5052889;28;20477;-63
2021/08/24 05:29:52;;;;;;;4.50;4.10;;;13.70;99.90;;;;;;5054068;28;20270;-62
2021/08/24 05:32:18;;;;;;;3.83;3.53;;;13.80;99.90;;;;;;5054221;28;20187;-62
2021/08/24 05:34:44;;;;;;;4.43;4.03;;;13.90;99.90;;;;;;5054405;28;20180;-63
2021/08/24 05:37:10;;;;;;;4.50;3.80;;;13.90;99.90;;;;;;5053809;28;20172;-63
2021/08/24 05:39:36;;;;;;;3.83;3.53;;;14.00;99.90;;;;;;5068703;28;21070;-61
2021/08/24 05:42:03;;;;;;;3.90;3.43;;;14.00;99.90;;;;;;5073739;28;20203;-63
2021/08/24 05:44:29;;;;;;;4.70;4.30;;;14.00;99.90;;;;;;5072912;28;20812;-61
2021/08/24 05:46:55;;;;;;;3.50;3.20;;;14.20;99.90;;;;;;5065979;28;20517;-63
2021/08/24 05:49:21;;;;;;;3.47;3.17;;;14.30;99.90;;;;;;5058038;28;20624;-63
2021/08/24 05:51:49;;;;;;;4.50;4.10;;;14.40;99.90;;;;;;5088968;28;20175;-62
2021/08/24 05:54:15;;;;;;;3.40;2.60;;;14.50;99.90;;;;;;5055874;28;20427;-62
2021/08/24 05:56:42;;;;;;;3.00;2.80;;;14.60;99.90;;;;;;5053666;28;20496;-62
2021/08/24 05:59:08;;;;;;;3.20;2.90;;;14.70;99.90;;;;;;5053607;28;20220;-64
2021/08/24 06:01:33;;;;;;;3.43;3.13;;;14.80;99.90;;;;;;5054015;28;20440;-63
2021/08/24 06:04:00;;;;;;;3.27;2.97;;;14.80;99.90;;;;;;5052408;28;20213;-63
2021/08/24 06:06:29;;;;;;;2.70;2.50;;;14.90;99.90;;;;;;5053791;28;20170;-64
2021/08/24 06:08:56;;;;;;;3.83;3.43;;;15.00;99.90;;;;;;5053487;28;20427;-61
2021/08/24 06:11:31;;;;;;;3.90;3.60;;;15.10;99.90;;;;;;5070468;28;20457;-64
2021/08/24 06:13:58;;;;;;;3.30;3.10;;;15.20;99.90;;;;;;5053680;28;20427;-64
2021/08/24 06:16:24;;;;;;;5.00;3.50;;;15.20;99.90;;;;;;5053448;28;20378;-63
2021/08/24 06:18:50;;;;;;;3.43;3.13;;;15.30;99.90;;;;;;5052888;28;20445;-63
2021/08/24 06:21:17;;;;;;;4.60;3.43;;;15.40;99.90;;;;;;5053462;28;20419;-63
2021/08/24 06:23:44;;;;;;;4.60;3.13;;;15.30;99.90;;;;;;5051975;28;20513;-63
2021/08/24 06:26:09;;;;;;;4.07;3.67;;;15.40;99.90;;;;;;5054243;28;20408;-62
2021/08/24 06:28:35;;;;;;;9.87;4.67;;;15.30;99.90;;;;;;5072788;28;20390;-62
2021/08/24 06:31:03;;;;;;;3.50;3.20;;;15.30;99.90;;;;;;5073361;28;20212;-63
2021/08/24 06:33:33;;;;;;;3.60;3.30;;;15.40;99.90;;;;;;5073334;28;20247;-66
2021/08/24 06:35:59;;;;;;;6.03;3.30;;;15.40;99.90;;;;;;5072100;28;20465;-62
2021/08/24 06:38:24;;;;;;;4.40;3.30;;;15.50;99.90;;;;;;5073306;28;20468;-64
2021/08/24 06:40:50;;;;;;;2.93;2.73;;;15.60;99.90;;;;;;5070229;28;20188;-62
2021/08/24 06:43:16;;;;;;;3.87;3.50;;;15.60;99.90;;;;;;5053159;28;20590;-63
2021/08/24 06:45:42;;;;;;;3.63;3.33;;;15.70;99.90;;;;;;5053603;28;20631;-63
2021/08/24 06:48:08;;;;;;;4.60;3.30;;;15.70;99.90;;;;;;5052453;28;20565;-62
2021/08/24 06:50:34;;;;;;;4.20;3.80;;;15.70;99.90;;;;;;5053051;28;20185;-62
2021/08/24 06:53:00;;;;;;;2.53;2.33;;;15.80;99.90;;;;;;5053158;28;20416;-62
2021/08/24 06:55:30;;;;;;;3.17;2.90;;;15.90;99.90;;;;;;5053440;28;20758;-63
2021/08/24 06:57:57;;;;;;;4.00;2.70;;;15.90;99.90;;;;;;5052708;28;20427;-63
2021/08/24 07:00:24;;;;;;;3.53;2.70;;;15.80;99.90;;;;;;5052969;28;20396;-62
2021/08/24 07:02:50;;;;;;;2.33;2.23;;;15.80;99.90;;;;;;5068219;28;20412;-62
2021/08/24 07:05:24;;;;;;;3.10;2.80;;;15.70;99.90;;;;;;5059056;28;20977;-63
2021/08/24 07:07:49;;;;;;;3.17;2.87;;;15.60;99.90;;;;;;5056820;28;20810;-62
2021/08/24 07:10:19;;;;;;;3.50;3.20;;;15.50;99.90;;;;;;5057137;28;20458;-65
2021/08/24 07:12:45;;;;;;;3.47;3.17;;;15.30;99.90;;;;;;5055632;28;20173;-62
2021/08/24 07:15:12;;;;;;;2.67;2.40;;;15.20;99.90;;;;;;5057117;28;20461;-63
2021/08/24 07:17:39;;;;;;;3.67;2.93;;;15.10;99.90;;;;;;5056490;28;20439;-62
2021/08/24 07:20:07;;;;;;;3.43;2.90;;;15.20;99.90;;;;;;5056853;28;20442;-63
2021/08/24 07:22:33;;;;;;;3.43;3.20;;;15.00;99.90;;;;;;5057315;28;20411;-62
2021/08/24 07:25:01;;;;;;;3.17;2.97;;;15.00;99.90;;;;;;5056928;28;20543;-64
2021/08/24 07:27:27;;;;;;;3.17;2.97;;;15.10;99.90;;;;;;5056286;28;20248;-64
2021/08/24 07:29:52;;;;;;;2.90;2.70;;;15.20;99.90;;;;;;5056433;28;20474;-63
2021/08/24 07:32:18;;;;;;;2.90;2.70;;;15.20;99.90;;;;;;5056496;28;20287;-63
2021/08/24 07:34:43;;;;;;;2.90;2.70;;;15.20;99.90;;;;;;5055289;28;20181;-63
2021/08/24 07:37:09;;;;;;;2.47;2.33;;;15.20;99.90;;;;;;5056082;28;20219;-64
2021/08/24 07:39:35;;;;;;;3.50;3.20;;;15.30;99.90;;;;;;5056402;28;20193;-63
2021/08/24 07:42:01;;;;;;;3.83;2.70;;;15.40;99.90;;;;;;5056326;28;20177;-62
2021/08/24 07:44:31;;;;;;;3.53;3.23;;;15.60;99.90;;;;;;5055968;28;20205;-61
2021/08/24 07:46:58;;;;;;;2.90;2.70;;;15.70;99.90;;;;;;5055729;28;20157;-61
2021/08/24 07:49:24;;;;;;;3.43;3.13;;;15.80;99.90;;;;;;5055823;28;20403;-62
2021/08/24 07:51:49;;;;;;;5.30;2.97;;;16.00;99.90;;;;;;5058305;28;20486;-63
2021/08/24 07:54:15;;;;;;;2.50;2.30;;;16.10;99.90;;;;;;5056120;28;20182;-63
2021/08/24 07:56:40;;;;;;;3.03;2.73;;;16.20;99.90;;;;;;5055719;28;20175;-62
2021/08/24 07:59:06;;;;;;;3.10;2.47;;;16.40;99.90;;;;;;5056052;28;20646;-63
2021/08/24 08:01:32;;;;;;;3.10;2.90;;;16.50;99.90;;;;;;5056246;28;20215;-62
2021/08/24 08:03:58;;;;;;;3.07;2.87;;;16.70;99.90;;;;;;5055851;28;20203;-62
2021/08/24 08:06:24;;;;;;;2.87;2.40;;;16.90;99.90;;;;;;5058718;28;20397;-62
2021/08/24 08:08:49;;;;;;;2.53;2.33;;;17.20;99.90;;;;;;5055644;28;20211;-63
2021/08/24 08:11:15;;;;;;;3.40;2.30;;;17.40;99.90;;;;;;5055907;28;20807;-62
2021/08/24 08:13:41;;;;;;;2.33;2.13;;;17.60;99.90;;;;;;5056082;28;20207;-61
2021/08/24 08:16:07;;;;;;;3.30;3.00;;;17.70;99.90;;;;;;5053445;28;20183;-62
2021/08/24 08:18:32;;;;;;;2.40;2.20;;;17.60;99.90;;;;;;5055169;28;20208;-63
2021/08/24 08:20:58;;;;;;;2.13;2.03;;;17.60;99.90;;;;;;5058416;28;20506;-63
2021/08/24 08:23:24;;;;;;;3.63;2.53;;;17.50;99.90;;;;;;5075064;28;20536;-64
2021/08/24 08:25:49;;;;;;;2.70;2.20;;;17.70;99.90;;;;;;5075640;28;20626;-63
2021/08/24 08:28:16;;;;;;;2.63;2.43;;;18.10;99.90;;;;;;5075216;28;20189;-62
2021/08/24 08:30:46;;;;;;;2.73;2.53;;;18.60;99.90;;;;;;5075373;28;20169;-63
2021/08/24 08:33:12;;;;;;;2.30;2.10;;;18.60;99.90;;;;;;5075440;28;20415;-63
2021/08/24 08:35:39;;;;;;;2.30;2.10;;;18.70;99.90;;;;;;5072886;28;20514;-63
2021/08/24 08:38:05;;;;;;;2.40;2.13;;;18.60;99.90;;;;;;5055187;28;20447;-62
2021/08/24 08:40:47;;;;;;;2.27;2.17;;;18.60;99.90;;;;;;5055427;28;20404;-63
2021/08/24 08:43:24;;;;;;;2.43;2.23;;;18.50;99.90;;;;;;5055248;28;20875;-63
2021/08/24 08:45:51;;;;;;;2.30;1.83;;;18.50;99.90;;;;;;5054693;28;20412;-63
2021/08/24 08:48:52;;;;;;;3.30;2.47;;;18.30;99.90;;;;;;5054199;28;20439;-63
2021/08/24 08:52:08;;;;;;;2.07;1.97;;;18.20;99.90;;;;;;5052468;28;20438;-62
2021/08/24 08:55:10;;;;;;;2.50;2.30;;;18.00;99.90;;;;;;5051490;28;20417;-62
2021/08/24 08:57:42;;;;;;;2.30;2.20;;;17.80;99.90;;;;;;5074017;28;20419;-63
2021/08/24 09:00:20;;;;;;;2.13;1.97;;;17.60;99.90;;;;;;5074791;28;20428;-62
2021/08/24 09:02:50;;;;;;;4.90;2.43;;;17.40;99.90;;;;;;5074943;28;20822;-62
2021/08/24 09:05:20;;;;;;;2.90;2.60;;;17.30;99.90;;;;;;5071212;28;20403;-62
2021/08/24 09:07:50;;;;;;;2.80;2.13;;;17.30;99.90;;;;;;5054526;28;20404;-62
2021/08/24 09:10:18;;;;;;;1.70;1.60;;;17.30;99.90;;;;;;5054963;28;20394;-63
2021/08/24 09:12:52;;;;;;;2.63;1.63;;;17.50;99.90;;;;;;5054757;28;20409;-61
2021/08/24 09:15:34;;;;;;;2.40;2.30;;;17.60;99.90;;;;;;5054940;28;20398;-63
2021/08/24 09:18:02;;;;;;;2.70;2.50;;;17.90;99.90;;;;;;5054457;28;20401;-62
2021/08/24 09:20:31;;;;;;;1.80;1.70;;;18.00;99.90;;;;;;5061674;28;20879;-64
2021/08/24 09:22:58;;;;;;;2.40;2.20;;;18.10;99.90;;;;;;5074645;28;20413;-62
2021/08/24 09:26:03;;;;;;;3.23;2.00;;;18.00;99.90;;;;;;5074584;28;20782;-62
2021/08/24 09:28:31;;;;;;;2.97;2.77;;;17.80;99.90;;;;;;5036897;28;20465;-62
2021/08/24 09:30:58;;;;;;;2.60;2.03;;;17.70;99.90;;;;;;5074074;28;20434;-62
2021/08/24 09:33:25;;;;;;;2.73;2.47;;;17.60;99.90;;;;;;5074445;28;20405;-63
2021/08/24 09:35:50;;;;;;;2.03;1.93;;;17.50;99.90;;;;;;5074446;28;20775;-62
2021/08/24 09:38:20;;;;;;;2.03;1.93;;;17.40;99.90;;;;;;5073830;28;20434;-63
2021/08/24 09:40:49;;;;;;;2.63;2.43;;;17.40;99.90;;;;;;5074192;28;20173;-64
2021/08/24 09:43:24;;;;;;;2.63;2.20;;;17.30;99.90;;;;;;5074273;28;20448;-62
2021/08/24 09:45:55;;;;;;;2.30;2.10;;;17.30;99.90;;;;;;5064162;28;20419;-62
2021/08/24 09:48:21;;;;;;;2.63;2.43;;;17.20;99.90;;;;;;5053553;28;20419;-61
2021/08/24 09:50:47;;;;;;;2.47;2.27;;;17.30;99.90;;;;;;5053139;28;20408;-62
2021/08/24 09:53:36;;;;;;;2.50;2.30;;;17.30;99.90;;;;;;5071951;28;20169;-62
2021/08/24 09:56:06;;;;;;;2.67;2.47;;;17.40;99.90;;;;;;5068487;28;20192;-63
2021/08/24 09:58:44;;;;;;;2.13;2.03;;;17.50;99.90;;;;;;5073396;28;20499;-63
2021/08/24 10:01:14;;;;;;;2.20;2.00;;;17.50;99.90;;;;;;5074025;28;20394;-63
2021/08/24 10:03:42;;;;;;;2.33;2.13;;;17.60;99.90;;;;;;5073780;28;20492;-63
2021/08/24 10:06:30;;;;;;;2.50;2.30;;;17.70;99.90;;;;;;5058974;28;20925;-63
2021/08/24 10:09:37;;;;;;;2.40;2.20;;;17.70;99.90;;;;;;5053523;28;20429;-63
2021/08/24 10:12:13;;;;;;;1.40;1.40;;;17.70;99.90;;;;;;5050590;28;20741;-63
2021/08/24 10:14:40;;;;;;;2.97;2.77;;;17.90;99.90;;;;;;5053766;28;20496;-61
2021/08/24 10:17:31;;;;;;;3.00;2.80;;;17.90;99.90;;;;;;5053481;28;20418;-63
2021/08/24 10:19:58;;;;;;;2.50;2.30;;;18.00;99.90;;;;;;5058476;28;20942;-63
2021/08/24 10:22:37;;;;;;;2.33;2.13;;;18.20;99.90;;;;;;5073673;28;20410;-63
2021/08/24 10:25:09;;;;;;;2.17;1.87;;;18.40;99.90;;;;;;5073523;28;20461;-63
2021/08/24 10:27:41;;;;;;;2.83;2.70;;;18.60;99.90;;;;;;5073210;28;20501;-62
2021/08/24 10:30:11;;;;;;;2.83;2.63;;;18.70;99.90;;;;;;5073648;28;20770;-62
2021/08/24 10:32:57;;;;;;;2.03;1.90;;;18.80;99.90;;;;;;5059778;28;20428;-62
2021/08/24 10:35:31;;;;;;;1.90;1.80;;;18.90;99.90;;;;;;5053381;28;20416;-63
2021/08/24 10:37:57;;;;;;;2.40;2.20;;;18.90;99.90;;;;;;5052360;28;20411;-62
2021/08/24 10:40:43;;;;;;;2.30;2.00;;;18.70;99.90;;;;;;5053173;28;20755;-63
2021/08/24 10:43:14;;;;;;;2.40;2.20;;;18.70;99.90;;;;;;5053335;28;20419;-60
2021/08/24 10:45:59;;;;;;;2.60;2.40;;;18.70;99.90;;;;;;5053365;28;20394;-62
2021/08/24 10:48:25;;;;;;;1.87;1.77;;;18.60;99.90;;;;;;5052818;28;20931;-62
2021/08/24 10:51:01;;;;;;;2.70;2.50;;;18.50;99.90;;;;;;5052986;28;20379;-61
2021/08/24 10:53:46;;;;;;;1.80;1.70;;;18.40;99.90;;;;;;5053241;28;20918;-63
2021/08/24 10:56:17;;;;;;;2.53;2.43;;;18.30;99.90;;;;;;5052601;28;20404;-62
2021/08/24 10:59:14;;;;;;;2.20;2.10;;;18.40;99.90;;;;;;5052231;28;20522;-61
2021/08/24 11:01:53;;;;;;;2.33;2.00;;;18.40;99.90;;;;;;5053013;28;20782;-62
2021/08/24 11:04:51;;;;;;;1.93;1.83;;;18.50;99.90;;;;;;5053179;28;20462;-66
2021/08/24 11:07:32;;;;;;;2.20;2.10;;;18.60;99.90;;;;;;5052762;28;20411;-64
2021/08/24 11:10:16;;;;;;;2.90;2.70;;;18.60;99.90;;;;;;5053036;28;20424;-65
2021/08/24 11:12:53;;;;;;;2.70;2.60;;;18.60;99.90;;;;;;5052434;28;20400;-62
2021/08/24 11:15:41;;;;;;;3.13;2.73;;;18.50;99.90;;;;;;5050792;28;20455;-65
2021/08/24 11:18:35;;;;;;;2.83;2.63;;;18.30;99.90;;;;;;5052745;28;20749;-62
2021/08/24 11:21:16;;;;;;;2.60;2.40;;;18.20;99.90;;;;;;5052996;28;20436;-64
2021/08/24 11:23:54;;;;;;;3.70;3.40;;;18.30;99.90;;;;;;5052838;28;20513;-64
2021/08/24 11:26:39;;;;;;;2.20;2.10;;;18.20;99.90;;;;;;5052773;28;20865;-64
2021/08/24 11:29:27;;;;;;;3.00;2.10;;;18.30;99.90;;;;;;5063053;28;20789;-64
2021/08/24 11:32:01;;;;;;;2.70;2.50;;;18.40;99.90;;;;;;5072649;28;20519;-64
2021/08/24 11:34:48;;;;;;;5.40;2.77;;;18.40;99.90;;;;;;5072655;28;20946;-63
2021/08/24 11:37:36;;;;;;;2.60;2.40;;;18.50;99.90;;;;;;5072334;28;20390;-65
2021/08/24 11:40:07;;;;;;;2.97;2.50;;;18.40;99.90;;;;;;5065202;28;20447;-63
2021/08/24 11:42:58;;;;;;;5.10;2.20;;;18.50;99.90;;;;;;5071467;28;20423;-64
2021/08/24 11:45:44;;;;;;;3.03;2.83;;;18.40;99.90;;;;;;5052750;28;20424;-64
2021/08/24 11:48:34;;;;;;;2.50;2.33;;;18.60;99.90;;;;;;5052276;28;20756;-63
2021/08/24 11:51:06;;;;;;;2.47;2.27;;;18.70;99.90;;;;;;5054947;28;20426;-67
2021/08/24 11:53:53;;;;;;;2.40;2.20;;;19.00;99.90;;;;;;5056257;28;20502;-63
2021/08/24 11:56:43;;;;;;;2.67;2.50;;;19.10;99.90;;;;;;5056627;28;20752;-62
2021/08/24 11:59:39;;;;;;;3.60;2.47;;;19.10;99.90;;;;;;5056101;28;20432;-62
2021/08/24 12:02:06;;;;;;;3.60;3.30;;;19.10;99.90;;;;;;5063553;28;20397;-64
2021/08/24 12:04:36;;;;;;;4.07;2.70;;;19.30;99.90;;;;;;5076093;28;20546;-62
2021/08/24 12:07:08;;;;;;;2.57;2.37;;;19.30;99.90;;;;;;5075301;28;20434;-63
2021/08/24 12:09:41;;;;;;;2.73;2.50;;;19.40;99.90;;;;;;5074038;28;20938;-61
2021/08/24 12:12:13;;;;;;;3.10;2.70;;;19.40;99.90;;;;;;5075490;28;20413;-62
2021/08/24 12:15:06;;;;;;;2.47;2.37;;;19.40;99.90;;;;;;5075414;28;20935;-62
2021/08/24 12:17:34;;;;;;;2.33;2.20;;;19.50;99.90;;;;;;5054453;28;20410;-63
2021/08/24 12:20:39;;;;;;;3.00;2.80;;;19.60;99.90;;;;;;5055139;28;20402;-63
2021/08/24 12:23:08;;;;;;;2.50;2.23;;;19.70;99.90;;;;;;5056049;28;20378;-63
2021/08/24 12:25:41;;;;;;;3.17;2.90;;;19.90;99.90;;;;;;5053321;28;20403;-62
2021/08/24 12:28:35;;;;;;;2.47;2.30;;;19.90;99.90;;;;;;5054281;28;20454;-62
2021/08/24 12:31:00;;;;;;;3.30;3.00;;;19.80;99.90;;;;;;5058620;28;20521;-63
2021/08/24 12:33:40;;;;;;;3.87;2.40;;;19.60;99.90;;;;;;5074575;28;20487;-64
2021/08/24 12:36:24;;;;;;;2.40;2.20;;;19.30;99.90;;;;;;5073364;28;20568;-62
2021/08/24 12:38:53;;;;;;;2.47;2.27;;;19.10;99.90;;;;;;5074091;28;20434;-63
2021/08/24 12:41:34;;;;;;;2.63;2.43;;;18.90;99.90;;;;;;5075841;28;20493;-64
2021/08/24 12:44:12;;;;;;;2.80;2.43;;;18.70;99.90;;;;;;5075493;28;20473;-62
2021/08/24 12:46:39;;;;;;;2.80;2.60;;;18.60;99.90;;;;;;5063331;28;20412;-63
2021/08/24 12:49:20;;;;;;;3.77;3.57;;;18.60;99.90;;;;;;5054108;28;20467;-63
2021/08/24 12:51:50;;;;;;;2.90;2.70;;;18.60;99.90;;;;;;5055355;28;20722;-64
2021/08/24 12:54:19;;;;;;;3.60;3.07;;;18.60;99.90;;;;;;5055566;28;20461;-63
2021/08/24 12:56:48;;;;;;;2.23;2.13;;;18.70;99.90;;;;;;5054842;28;20379;-62
2021/08/24 12:59:33;;;;;;;2.97;2.70;;;18.90;99.90;;;;;;5054815;28;20496;-63
2021/08/24 13:02:19;;;;;;;2.73;2.53;;;19.10;99.90;;;;;;5070544;28;20750;-62
2021/08/24 13:04:52;;;;;;;1.90;1.77;;;19.20;99.90;;;;;;5075174;28;20444;-62
2021/08/24 13:07:31;;;;;;;2.67;2.30;;;19.30;99.90;;;;;;5074549;28;20415;-62
2021/08/24 13:10:22;;;;;;;2.60;2.40;;;19.50;99.90;;;;;;5074979;28;20782;-62
2021/08/24 13:12:48;;;;;;;1.90;1.80;;;19.60;99.90;;;;;;5074736;28;20384;-62